Pax, West Virginia
Current Conditions -  °F | °C
As of 11:51 AM on Friday 28 Nov 2014 (Local Time) from KBKW Reporting Station
Light Snow Light Snow  
Wind Chill: 16°   Ceiling: 1200
Heat Index: 24°   Visibility: 1.7mi
Dew Point: 18°   Wind: 7mph
Humidity: 77%   Direction: 290°WNW
Pressure: 30.26"   Gusts: NA
Location:  37.91°N, 81.26°W
Report Text: KBKW 281651Z AUTO 29006KT 1 3/4SM -SN BKN012 OVC020 M04/M08 A3026 RMK AO2 SLP288 P0000 T10441078
Loading
Personal Weather Stations






























Interactive Weather Map New forecast layout! Learn more

10-Day Weather Forecast

Advertisements
Track Severe Weather on mobile